Time;durP1;ratioP1;P1;durP2;ratioP2;P2;SDS_P1;SDS_P2;PMS_P1;PMS_P2;Temp;Humidity;BMP_temperature;BMP_pressure;BME280_temperature;BME280_humidity;BME280_pressure;Samples;Min_cycle;Max_cycle;Signal;HPM_P1;HPM_P2
2022/12/20 00:00:45;;;;;;;50.93;29.30;;;0.60;99.90;;;;;;5083081;28;20228;-79
2022/12/20 00:03:12;;;;;;;47.23;28.37;;;0.60;99.90;;;;;;5081951;28;20205;-78
2022/12/20 00:05:40;;;;;;;38.67;26.10;;;0.60;99.90;;;;;;5081461;28;20201;-77
2022/12/20 00:08:07;;;;;;;45.47;27.30;;;0.70;99.90;;;;;;5083343;28;20193;-79
2022/12/20 00:10:35;;;;;;;43.67;26.93;;;0.70;99.90;;;;;;5077887;28;20209;-78
2022/12/20 00:13:02;;;;;;;42.57;26.60;;;0.80;99.90;;;;;;5080035;28;20201;-78
2022/12/20 00:15:30;;;;;;;40.97;25.20;;;0.80;99.90;;;;;;5076895;28;20204;-79
2022/12/20 00:17:58;;;;;;;40.33;26.50;;;0.80;99.90;;;;;;5075329;28;20197;-79
2022/12/20 00:20:28;;;;;;;40.83;25.80;;;0.80;99.90;;;;;;5090803;28;20197;-82
2022/12/20 00:22:55;;;;;;;46.80;27.00;;;0.90;99.90;;;;;;5091476;28;20288;-83
2022/12/20 00:25:23;;;;;;;42.00;26.50;;;0.90;99.90;;;;;;5091824;28;20201;-82
2022/12/20 00:27:51;;;;;;;37.73;24.47;;;1.00;99.90;;;;;;5092155;28;20230;-82
2022/12/20 00:30:18;;;;;;;37.37;23.90;;;1.00;99.90;;;;;;5092319;28;20614;-83
2022/12/20 00:32:45;;;;;;;39.40;24.37;;;1.00;99.90;;;;;;5090824;28;20197;-82
2022/12/20 00:35:13;;;;;;;40.23;25.30;;;1.00;99.90;;;;;;5090481;28;20266;-82
2022/12/20 00:37:40;;;;;;;39.40;25.47;;;1.00;99.90;;;;;;5090566;28;20201;-83
2022/12/20 00:40:09;;;;;;;36.93;25.03;;;1.00;99.90;;;;;;5090023;28;20255;-82
2022/12/20 00:42:36;;;;;;;38.83;25.63;;;1.00;99.90;;;;;;5091598;28;20228;-83
2022/12/20 00:45:03;;;;;;;44.80;25.90;;;1.10;99.90;;;;;;5091482;28;20193;-82
2022/12/20 00:47:29;;;;;;;41.20;25.43;;;1.10;99.90;;;;;;5092228;28;20201;-82
2022/12/20 00:49:56;;;;;;;36.60;24.27;;;1.10;99.90;;;;;;5093100;28;20231;-82
2022/12/20 00:52:24;;;;;;;39.57;25.10;;;1.10;99.90;;;;;;5092732;28;20197;-82
2022/12/20 00:54:51;;;;;;;37.83;25.23;;;1.10;99.90;;;;;;5092323;28;20200;-81
2022/12/20 00:57:17;;;;;;;38.87;24.97;;;1.10;99.90;;;;;;5095632;28;20181;-82
2022/12/20 00:59:44;;;;;;;41.03;25.37;;;1.10;99.90;;;;;;5090532;28;20201;-82
2022/12/20 01:02:11;;;;;;;40.40;25.20;;;1.10;99.90;;;;;;5090119;28;20274;-82
2022/12/20 01:04:37;;;;;;;38.00;23.10;;;1.10;99.90;;;;;;5090327;28;20201;-82
2022/12/20 01:07:04;;;;;;;37.80;24.97;;;1.10;99.90;;;;;;5089700;28;20718;-82
2022/12/20 01:09:32;;;;;;;39.83;25.43;;;1.10;99.90;;;;;;5089567;28;20197;-82
2022/12/20 01:11:59;;;;;;;39.50;24.90;;;1.00;99.90;;;;;;5089449;28;20615;-82
2022/12/20 01:14:26;;;;;;;35.47;23.80;;;1.00;99.90;;;;;;5089145;28;20200;-82
2022/12/20 01:16:52;;;;;;;42.10;25.63;;;1.00;99.90;;;;;;5089291;28;20200;-82
2022/12/20 01:19:19;;;;;;;40.57;25.30;;;0.90;99.90;;;;;;5089044;28;20197;-82
2022/12/20 01:21:46;;;;;;;40.23;25.03;;;0.90;99.90;;;;;;5089447;28;20254;-81
2022/12/20 01:24:14;;;;;;;40.67;25.73;;;0.90;99.90;;;;;;5088838;28;20245;-81
2022/12/20 01:26:42;;;;;;;39.53;24.87;;;0.90;99.90;;;;;;5088051;28;20208;-82
2022/12/20 01:29:09;;;;;;;39.87;24.27;;;0.80;99.90;;;;;;5088468;28;20197;-82
2022/12/20 01:31:36;;;;;;;40.20;25.60;;;0.80;99.90;;;;;;5088512;28;20205;-82
2022/12/20 01:34:02;;;;;;;37.63;24.23;;;0.80;99.90;;;;;;5087600;28;20338;-81
2022/12/20 01:36:31;;;;;;;39.70;25.37;;;0.80;99.90;;;;;;5087414;28;20652;-82
2022/12/20 01:38:59;;;;;;;43.17;25.83;;;0.70;99.90;;;;;;5088055;28;20229;-82
2022/12/20 01:41:27;;;;;;;41.93;26.07;;;0.70;99.90;;;;;;5090838;28;20223;-82
2022/12/20 01:43:57;;;;;;;40.57;24.47;;;0.80;99.90;;;;;;5092623;28;20635;-83
2022/12/20 01:46:25;;;;;;;43.90;26.13;;;0.80;99.90;;;;;;5090907;28;20189;-83
2022/12/20 01:48:56;;;;;;;40.33;26.30;;;0.70;99.90;;;;;;5091679;28;20251;-82
2022/12/20 01:51:24;;;;;;;41.53;25.67;;;0.70;99.90;;;;;;5092962;28;20201;-83
2022/12/20 01:53:56;;;;;;;44.30;27.13;;;0.80;99.90;;;;;;5090645;28;20224;-83
2022/12/20 01:56:22;;;;;;;41.83;27.37;;;0.90;99.90;;;;;;5091144;28;20197;-83
2022/12/20 01:58:53;;;;;;;41.77;26.27;;;0.90;99.90;;;;;;5092106;28;20196;-83
2022/12/20 02:01:21;;;;;;;45.10;25.73;;;0.90;99.90;;;;;;5091560;28;20224;-83
2022/12/20 02:03:49;;;;;;;43.23;27.60;;;0.90;99.90;;;;;;5091496;28;20216;-83
2022/12/20 02:06:18;;;;;;;39.63;25.80;;;1.00;99.90;;;;;;5091422;28;20227;-83
2022/12/20 02:08:48;;;;;;;44.07;27.93;;;1.00;99.90;;;;;;5093655;28;20201;-83
2022/12/20 02:11:26;;;;;;;43.93;26.57;;;1.10;99.90;;;;;;5090524;28;20254;-81
2022/12/20 02:14:06;;;;;;;42.47;26.37;;;1.10;99.90;;;;;;5090557;28;20185;-83
2022/12/20 02:16:41;;;;;;;42.70;26.57;;;1.20;99.90;;;;;;5094849;28;20169;-83
2022/12/20 02:19:20;;;;;;;40.70;26.53;;;1.20;99.90;;;;;;5088034;28;20671;-82
2022/12/20 02:21:55;;;;;;;42.07;26.10;;;1.20;99.90;;;;;;5088805;28;20247;-82
2022/12/20 02:24:46;;;;;;;42.23;26.30;;;1.20;99.90;;;;;;5088755;28;20196;-82
2022/12/20 02:27:49;;;;;;;42.63;26.13;;;1.20;99.90;;;;;;5088915;28;20220;-82
2022/12/20 02:30:18;;;;;;;41.33;26.23;;;1.10;99.90;;;;;;5085712;28;20197;-82
2022/12/20 02:32:50;;;;;;;41.07;25.80;;;1.20;99.90;;;;;;5088468;28;20208;-82
2022/12/20 02:35:22;;;;;;;44.50;27.10;;;1.20;99.90;;;;;;5089195;28;20652;-82
2022/12/20 02:37:50;;;;;;;38.70;26.40;;;1.10;99.90;;;;;;5089058;28;20197;-82
2022/12/20 02:40:22;;;;;;;42.43;25.50;;;1.10;99.90;;;;;;5089332;28;20233;-82
2022/12/20 02:42:52;;;;;;;40.87;25.87;;;1.10;99.90;;;;;;5092032;28;20253;-82
2022/12/20 02:45:22;;;;;;;40.83;25.07;;;1.10;99.90;;;;;;5092527;28;20201;-82
2022/12/20 02:47:56;;;;;;;39.77;25.30;;;1.10;99.90;;;;;;5095289;28;20668;-82
2022/12/20 02:50:27;;;;;;;41.83;25.70;;;1.10;99.90;;;;;;5094966;28;20236;-83
2022/12/20 02:52:54;;;;;;;37.87;24.80;;;1.10;99.90;;;;;;5094535;28;20239;-82
2022/12/20 02:55:31;;;;;;;39.60;25.00;;;1.10;99.90;;;;;;5095623;28;20224;-82
2022/12/20 02:58:02;;;;;;;42.90;26.53;;;1.10;99.90;;;;;;5094544;28;20205;-83
2022/12/20 03:00:34;;;;;;;43.30;26.27;;;1.10;99.90;;;;;;5094139;28;20258;-83
2022/12/20 03:05:48;;;;;;;42.93;25.90;;;1.20;99.90;;;;;;5095037;28;20208;-82
2022/12/20 03:08:14;;;;;;;40.60;26.23;;;1.20;99.90;;;;;;5092174;28;20219;-82
2022/12/20 03:10:41;;;;;;;41.07;26.50;;;1.20;99.90;;;;;;5091932;28;20270;-82
2022/12/20 03:13:08;;;;;;;41.23;26.60;;;1.20;99.90;;;;;;5092825;28;20308;-83
2022/12/20 03:15:36;;;;;;;38.97;26.17;;;1.20;99.90;;;;;;5095971;28;20207;-82
2022/12/20 03:18:04;;;;;;;47.70;30.00;;;1.20;99.90;;;;;;5095954;28;20197;-83
2022/12/20 03:20:30;;;;;;;47.47;31.27;;;1.20;99.90;;;;;;5096298;28;20258;-83
2022/12/20 03:22:57;;;;;;;41.30;28.10;;;1.30;99.90;;;;;;5096255;28;20220;-83
2022/12/20 03:25:24;;;;;;;38.93;25.87;;;1.30;99.90;;;;;;5094711;28;20197;-83
2022/12/20 03:27:50;;;;;;;40.23;24.63;;;1.30;99.90;;;;;;5096258;28;20228;-82
2022/12/20 03:30:17;;;;;;;42.03;26.80;;;1.30;99.90;;;;;;5097016;28;20193;-83
2022/12/20 03:32:45;;;;;;;39.07;24.63;;;1.30;99.90;;;;;;5096202;28;20706;-83
2022/12/20 03:35:12;;;;;;;39.23;24.63;;;1.40;99.90;;;;;;5096729;28;20706;-83
2022/12/20 03:37:39;;;;;;;39.73;25.53;;;1.30;99.90;;;;;;5096681;28;20223;-83
2022/12/20 03:40:07;;;;;;;38.40;24.63;;;1.40;99.90;;;;;;5096668;28;20233;-83
2022/12/20 03:42:34;;;;;;;40.50;25.03;;;1.30;99.90;;;;;;5095825;28;20247;-83
2022/12/20 03:45:00;;;;;;;40.03;25.30;;;1.30;99.90;;;;;;5097174;28;20185;-83
2022/12/20 03:47:27;;;;;;;34.37;23.27;;;1.30;99.90;;;;;;5097042;28;20197;-82
2022/12/20 03:49:56;;;;;;;39.50;25.23;;;1.30;99.90;;;;;;5095750;28;20234;-83
2022/12/20 03:52:22;;;;;;;38.50;26.07;;;1.30;99.90;;;;;;5097087;28;20231;-84
2022/12/20 03:54:49;;;;;;;39.93;24.77;;;1.30;99.90;;;;;;5096493;28;20618;-82
2022/12/20 03:57:16;;;;;;;37.73;25.87;;;1.30;99.90;;;;;;5097316;28;20235;-83
2022/12/20 03:59:43;;;;;;;38.30;25.03;;;1.40;99.90;;;;;;5096543;28;20236;-83
2022/12/20 04:02:09;;;;;;;38.33;24.03;;;1.30;99.90;;;;;;5094655;28;20756;-83
2022/12/20 04:04:36;;;;;;;40.63;26.20;;;1.30;99.90;;;;;;5095522;28;20201;-83
2022/12/20 04:07:04;;;;;;;40.43;25.57;;;1.30;99.90;;;;;;5095748;28;20201;-83
2022/12/20 04:09:31;;;;;;;40.80;24.17;;;1.30;99.90;;;;;;5095670;28;20227;-83
2022/12/20 04:11:57;;;;;;;40.50;25.90;;;1.40;99.90;;;;;;5095187;28;20201;-84
2022/12/20 04:14:24;;;;;;;37.97;25.33;;;1.40;99.90;;;;;;5095733;28;20192;-83
2022/12/20 04:16:51;;;;;;;40.73;26.27;;;1.40;99.90;;;;;;5095541;28;20253;-83
2022/12/20 04:19:17;;;;;;;37.90;25.57;;;1.40;99.90;;;;;;5095187;28;20227;-83
2022/12/20 04:21:44;;;;;;;37.70;25.63;;;1.30;99.90;;;;;;5094971;28;20203;-83
2022/12/20 04:24:12;;;;;;;41.03;25.07;;;1.30;99.90;;;;;;5095001;28;20251;-83
2022/12/20 04:26:38;;;;;;;38.70;25.20;;;1.30;99.90;;;;;;5095207;28;20197;-83
2022/12/20 04:29:05;;;;;;;40.27;25.97;;;1.30;99.90;;;;;;5095219;28;20201;-83
2022/12/20 04:31:32;;;;;;;41.10;25.60;;;1.30;99.90;;;;;;5095173;28;20231;-83
2022/12/20 04:33:59;;;;;;;44.03;27.40;;;1.30;99.90;;;;;;5094624;28;20227;-83
2022/12/20 04:36:25;;;;;;;41.10;26.80;;;1.40;99.90;;;;;;5096590;28;20208;-83
2022/12/20 04:38:52;;;;;;;40.27;25.53;;;1.40;99.90;;;;;;5094490;28;20228;-83
2022/12/20 04:41:23;;;;;;;43.63;26.10;;;1.40;99.90;;;;;;5094329;28;20201;-83
2022/12/20 04:43:51;;;;;;;41.83;26.33;;;1.40;99.90;;;;;;5094264;28;20243;-83
2022/12/20 04:46:18;;;;;;;41.53;26.37;;;1.40;99.90;;;;;;5093754;28;20201;-84
2022/12/20 04:48:45;;;;;;;38.30;24.47;;;1.30;99.90;;;;;;5093857;28;20637;-83
2022/12/20 04:51:11;;;;;;;43.40;25.47;;;1.30;99.90;;;;;;5093464;28;20205;-83
2022/12/20 04:53:46;;;;;;;36.33;22.80;;;1.20;99.90;;;;;;5093810;28;20201;-83
2022/12/20 04:56:14;;;;;;;39.77;24.73;;;1.10;99.90;;;;;;5093463;28;20197;-83
2022/12/20 04:58:42;;;;;;;39.87;25.63;;;1.10;99.90;;;;;;5093768;28;20560;-83
2022/12/20 05:01:09;;;;;;;36.67;24.30;;;1.20;99.90;;;;;;5093356;28;20197;-83
2022/12/20 05:03:36;;;;;;;37.83;25.80;;;1.20;99.90;;;;;;5092816;28;20246;-83
2022/12/20 05:06:03;;;;;;;42.27;26.00;;;1.20;99.90;;;;;;5093814;28;20204;-83
2022/12/20 05:08:29;;;;;;;37.67;24.97;;;1.30;99.90;;;;;;5092452;28;20231;-83
2022/12/20 05:10:56;;;;;;;38.77;25.03;;;1.40;99.90;;;;;;5093997;28;20205;-83
2022/12/20 05:13:22;;;;;;;39.37;25.00;;;1.40;99.90;;;;;;5094157;28;20231;-83
2022/12/20 05:15:52;;;;;;;36.83;24.60;;;1.50;99.90;;;;;;5094809;28;20258;-83
2022/12/20 05:18:19;;;;;;;43.60;26.37;;;1.50;99.90;;;;;;5094460;28;20193;-83
2022/12/20 05:20:47;;;;;;;35.67;24.83;;;1.50;99.90;;;;;;5094446;28;20246;-84
2022/12/20 05:26:17;;;;;;;38.57;25.03;;;1.50;99.90;;;;;;5094224;28;20199;-83
2022/12/20 05:28:44;;;;;;;39.50;25.10;;;1.60;99.90;;;;;;5094415;28;20223;-83
2022/12/20 05:31:12;;;;;;;39.10;25.20;;;1.60;99.90;;;;;;5095108;28;20187;-83
2022/12/20 05:33:39;;;;;;;36.70;24.20;;;1.60;99.90;;;;;;5094511;28;20288;-82
2022/12/20 05:36:06;;;;;;;35.80;23.80;;;1.60;99.90;;;;;;5094965;28;20209;-82
2022/12/20 05:38:32;;;;;;;37.20;24.17;;;1.60;99.90;;;;;;5095182;28;20233;-82
2022/12/20 05:40:59;;;;;;;36.33;23.97;;;1.70;99.90;;;;;;5095775;28;20200;-82
2022/12/20 05:43:26;;;;;;;33.73;24.43;;;1.70;99.90;;;;;;5094802;28;20228;-83
2022/12/20 05:45:53;;;;;;;38.20;24.20;;;1.70;99.90;;;;;;5095512;28;20197;-83
2022/12/20 05:48:21;;;;;;;40.17;24.83;;;1.80;99.90;;;;;;5096163;28;20223;-82
2022/12/20 05:50:49;;;;;;;38.80;24.77;;;1.80;99.90;;;;;;5096153;28;20196;-83
2022/12/20 05:53:16;;;;;;;38.63;25.00;;;1.80;99.90;;;;;;5096131;28;20201;-83
2022/12/20 05:55:44;;;;;;;42.37;26.30;;;1.80;99.90;;;;;;5096041;28;20197;-82
2022/12/20 05:58:13;;;;;;;41.73;24.90;;;1.80;99.90;;;;;;5095739;28;20220;-82
2022/12/20 06:00:40;;;;;;;47.10;27.33;;;1.80;99.90;;;;;;5095553;28;20204;-83
2022/12/20 06:03:08;;;;;;;62.83;34.27;;;1.80;99.90;;;;;;5095817;28;20218;-83
2022/12/20 06:05:36;;;;;;;50.23;30.93;;;1.80;99.90;;;;;;5096269;28;20256;-83
2022/12/20 06:08:03;;;;;;;56.53;31.47;;;1.90;99.90;;;;;;5095345;28;20193;-83
2022/12/20 06:10:30;;;;;;;47.37;29.60;;;1.90;99.90;;;;;;5095888;28;20255;-83
2022/12/20 06:12:56;;;;;;;42.73;26.40;;;1.90;99.90;;;;;;5096118;28;20209;-83
2022/12/20 06:15:23;;;;;;;40.23;24.87;;;1.90;99.90;;;;;;5095857;28;20201;-82
2022/12/20 06:17:50;;;;;;;33.87;22.97;;;1.90;99.90;;;;;;5095702;28;20219;-83
2022/12/20 06:20:16;;;;;;;38.30;23.03;;;1.90;99.90;;;;;;5095474;28;20230;-82
2022/12/20 06:22:44;;;;;;;37.13;23.67;;;1.90;99.90;;;;;;5098825;28;20207;-82
2022/12/20 06:25:13;;;;;;;36.10;23.53;;;1.90;99.90;;;;;;5098410;28;20229;-82
2022/12/20 06:27:40;;;;;;;39.00;25.57;;;1.80;99.90;;;;;;5099023;28;20201;-83
2022/12/20 06:30:09;;;;;;;39.60;23.30;;;1.80;99.90;;;;;;5098819;28;20208;-83
2022/12/20 06:32:36;;;;;;;39.90;24.80;;;1.80;99.90;;;;;;5098639;28;20211;-83
2022/12/20 06:35:02;;;;;;;35.60;24.17;;;1.80;99.90;;;;;;5099026;28;20205;-83
2022/12/20 06:37:30;;;;;;;31.97;21.07;;;1.80;99.90;;;;;;5099235;28;20181;-82
2022/12/20 06:39:58;;;;;;;33.70;21.70;;;1.90;99.90;;;;;;5098453;28;20262;-83
2022/12/20 06:42:25;;;;;;;30.47;22.33;;;1.80;99.90;;;;;;5098258;28;20207;-82
2022/12/20 06:44:52;;;;;;;35.60;22.47;;;1.80;99.90;;;;;;5097846;28;20256;-82
2022/12/20 06:47:18;;;;;;;34.30;21.67;;;1.80;99.90;;;;;;5097940;28;20196;-83
2022/12/20 06:49:45;;;;;;;31.07;21.77;;;1.80;99.90;;;;;;5098401;28;20227;-83
2022/12/20 06:52:11;;;;;;;32.87;22.20;;;1.90;99.90;;;;;;5098506;28;20205;-82
2022/12/20 06:54:38;;;;;;;33.70;22.60;;;1.90;99.90;;;;;;5097080;28;20205;-82
2022/12/20 06:57:06;;;;;;;34.57;22.50;;;1.90;99.90;;;;;;5098728;28;20231;-82
2022/12/20 06:59:34;;;;;;;32.27;22.37;;;1.90;99.90;;;;;;5098537;28;20193;-82
2022/12/20 07:02:01;;;;;;;32.60;22.37;;;1.90;99.90;;;;;;5097891;28;20204;-83
2022/12/20 07:04:27;;;;;;;32.93;22.87;;;1.90;99.90;;;;;;5097900;28;20251;-82
2022/12/20 07:06:55;;;;;;;35.57;22.87;;;2.00;99.90;;;;;;5098918;28;20227;-82
2022/12/20 07:09:22;;;;;;;32.67;22.53;;;2.00;99.90;;;;;;5099446;28;20185;-83
2022/12/20 07:11:49;;;;;;;33.10;21.43;;;2.10;99.90;;;;;;5095910;28;20247;-82
2022/12/20 07:14:17;;;;;;;34.23;22.90;;;2.10;99.90;;;;;;5098047;28;20200;-83
2022/12/20 07:16:44;;;;;;;34.60;21.87;;;2.10;99.90;;;;;;5228768;23;20225;-83
2022/12/20 07:19:13;;;;;;;30.97;21.77;;;2.20;99.90;;;;;;5058920;28;20227;-82
2022/12/20 07:21:40;;;;;;;33.77;22.27;;;2.20;99.90;;;;;;5209494;23;20219;-80
2022/12/20 07:24:08;;;;;;;32.47;21.27;;;2.20;99.90;;;;;;5037859;28;20215;-82
2022/12/20 07:26:35;;;;;;;34.73;22.43;;;2.20;99.90;;;;;;5034066;28;20605;-79
2022/12/20 07:29:01;;;;;;;32.67;22.63;;;2.30;99.90;;;;;;5035875;28;20189;-83
2022/12/20 07:31:29;;;;;;;31.43;20.93;;;2.30;99.90;;;;;;5038015;28;20222;-79
2022/12/20 07:33:56;;;;;;;29.00;21.07;;;2.20;99.90;;;;;;5038798;28;20183;-83
2022/12/20 07:36:23;;;;;;;32.33;21.67;;;2.20;99.90;;;;;;5033211;28;20223;-83
2022/12/20 07:38:50;;;;;;;30.43;20.73;;;2.20;99.90;;;;;;5034814;28;20179;-82
2022/12/20 07:41:18;;;;;;;34.70;20.63;;;2.20;99.90;;;;;;5039125;28;20184;-86
2022/12/20 07:43:45;;;;;;;31.57;20.17;;;2.30;99.90;;;;;;5039770;28;20224;-84
2022/12/20 07:46:14;;;;;;;31.70;21.93;;;2.30;99.90;;;;;;5035867;28;20204;-82
2022/12/20 07:48:43;;;;;;;29.80;21.37;;;2.30;99.90;;;;;;5039304;28;20188;-82
2022/12/20 07:51:14;;;;;;;33.00;22.10;;;2.30;99.90;;;;;;5038839;28;20207;-82
2022/12/20 07:53:45;;;;;;;30.03;20.63;;;2.30;99.90;;;;;;5039209;28;20200;-82
2022/12/20 07:56:13;;;;;;;30.87;21.03;;;2.40;99.90;;;;;;5039229;28;20192;-82
2022/12/20 07:58:41;;;;;;;29.83;20.50;;;2.40;99.90;;;;;;5034659;28;20185;-82
2022/12/20 08:03:47;;;;;;;31.97;22.67;;;2.60;99.90;;;;;;5309243;22;20226;-79
2022/12/20 08:06:15;;;;;;;35.53;22.53;;;2.60;99.90;;;;;;5033148;28;20200;-80
2022/12/20 08:08:45;;;;;;;32.70;22.67;;;2.70;99.90;;;;;;5038996;28;20201;-81
2022/12/20 08:11:15;;;;;;;31.33;22.23;;;2.70;99.90;;;;;;5040355;28;20185;-78
2022/12/20 08:13:42;;;;;;;31.77;20.93;;;2.80;99.90;;;;;;5039731;28;20221;-79
2022/12/20 08:16:08;;;;;;;29.13;20.70;;;2.80;99.90;;;;;;5003011;28;20259;-79
2022/12/20 08:18:35;;;;;;;32.20;21.27;;;2.90;99.90;;;;;;5000777;28;20206;-79
2022/12/20 08:21:04;;;;;;;30.00;20.63;;;2.90;99.90;;;;;;5000224;28;20196;-79
2022/12/20 08:23:30;;;;;;;29.23;19.47;;;2.90;99.90;;;;;;5008414;28;20186;-80
2022/12/20 08:26:00;;;;;;;28.40;20.60;;;3.00;99.90;;;;;;5012079;28;20194;-79
2022/12/20 08:28:27;;;;;;;27.20;19.53;;;3.10;99.90;;;;;;5000236;28;20270;-79
2022/12/20 08:31:00;;;;;;;27.57;19.57;;;3.10;99.90;;;;;;5000741;28;20204;-79
2022/12/20 08:33:26;;;;;;;26.93;20.83;;;3.30;99.90;;;;;;4999903;28;20199;-79
2022/12/20 08:35:58;;;;;;;29.37;19.17;;;3.30;99.90;;;;;;5003521;28;20223;-79
2022/12/20 08:38:27;;;;;;;33.47;19.90;;;3.40;99.90;;;;;;5007851;28;20294;-80
2022/12/20 08:40:54;;;;;;;26.73;19.30;;;3.60;99.90;;;;;;5019466;28;20228;-82
2022/12/20 08:43:21;;;;;;;24.93;18.50;;;3.70;99.90;;;;;;5017225;28;20206;-80
2022/12/20 08:45:53;;;;;;;24.13;18.50;;;3.80;99.90;;;;;;5014661;28;20612;-81
2022/12/20 08:48:19;;;;;;;25.87;18.30;;;4.00;99.90;;;;;;5014448;28;20202;-84
2022/12/20 08:50:46;;;;;;;23.90;18.10;;;4.10;99.90;;;;;;5015939;28;20203;-79
2022/12/20 08:53:13;;;;;;;24.90;17.87;;;4.20;99.90;;;;;;5015743;28;20211;-84
2022/12/20 08:55:40;;;;;;;21.37;16.23;;;4.30;99.90;;;;;;5014370;28;20199;-82
2022/12/20 08:58:07;;;;;;;23.27;16.97;;;4.50;99.90;;;;;;5014044;28;20260;-89
2022/12/20 09:00:34;;;;;;;21.60;16.17;;;4.70;99.90;;;;;;5014483;28;20567;-86
2022/12/20 09:03:00;;;;;;;22.57;16.87;;;4.80;99.90;;;;;;5017953;28;20226;-86
2022/12/20 09:05:27;;;;;;;21.50;16.70;;;4.90;99.90;;;;;;5016249;28;20234;-83
2022/12/20 09:07:54;;;;;;;21.67;16.27;;;5.00;99.90;;;;;;5021090;28;20199;-87
2022/12/20 09:10:20;;;;;;;22.07;15.83;;;5.20;99.90;;;;;;5025191;28;20238;-89
2022/12/20 09:12:48;;;;;;;21.87;16.53;;;5.20;99.90;;;;;;5014287;28;20245;-84
2022/12/20 09:15:15;;;;;;;20.50;14.93;;;5.30;99.90;;;;;;5014122;28;20250;-89
2022/12/20 09:17:41;;;;;;;19.37;15.00;;;5.30;99.90;;;;;;5012639;28;20191;-78
2022/12/20 09:20:09;;;;;;;24.13;16.43;;;5.20;99.90;;;;;;5013018;28;20253;-87
2022/12/20 09:22:35;;;;;;;21.10;15.60;;;5.20;99.90;;;;;;5012722;28;20250;-96
2022/12/20 09:25:02;;;;;;;22.50;18.07;;;5.20;99.90;;;;;;4994128;28;20227;-77
2022/12/20 09:27:28;;;;;;;20.40;15.97;;;5.20;99.90;;;;;;4993621;28;20199;-79
2022/12/20 09:29:56;;;;;;;19.27;15.63;;;5.30;99.90;;;;;;4993719;28;20211;-81
2022/12/20 09:32:23;;;;;;;21.13;15.97;;;5.20;99.90;;;;;;4994015;28;20195;-81
2022/12/20 09:34:49;;;;;;;20.13;16.23;;;5.20;99.90;;;;;;5013564;28;20207;-83
2022/12/20 09:37:16;;;;;;;22.63;16.60;;;5.10;99.90;;;;;;5013270;28;20199;-80
2022/12/20 09:39:43;;;;;;;21.23;16.13;;;5.10;99.90;;;;;;5013271;28;20199;-79
2022/12/20 09:42:09;;;;;;;19.77;15.40;;;5.10;99.90;;;;;;5013721;28;20249;-83
2022/12/20 09:44:39;;;;;;;21.17;16.10;;;5.00;99.90;;;;;;5014222;28;20294;-87
2022/12/20 09:47:12;;;;;;;22.53;15.80;;;5.00;99.90;;;;;;5013893;28;20240;-80
2022/12/20 09:49:42;;;;;;;21.90;15.33;;;5.00;99.90;;;;;;5013652;28;20264;-84
2022/12/20 09:52:25;;;;;;;19.97;15.47;;;5.00;99.90;;;;;;5018946;28;20203;-82
2022/12/20 09:55:01;;;;;;;22.00;16.43;;;5.00;99.90;;;;;;5021013;28;20712;-85
2022/12/20 09:57:34;;;;;;;18.70;15.60;;;5.00;99.90;;;;;;5020935;28;20199;-84
2022/12/20 10:00:01;;;;;;;19.47;14.77;;;5.10;99.90;;;;;;5020766;28;20296;-86
2022/12/20 10:02:30;;;;;;;21.97;15.20;;;5.30;99.90;;;;;;5022329;28;20282;-81
2022/12/20 10:04:57;;;;;;;19.80;15.07;;;5.40;99.90;;;;;;5018229;28;20226;-82
2022/12/20 10:07:36;;;;;;;18.33;13.77;;;5.40;99.90;;;;;;5018938;28;20261;-76
2022/12/20 10:10:38;;;;;;;22.23;15.77;;;5.50;99.90;;;;;;5017372;28;20199;-83
2022/12/20 10:13:17;;;;;;;20.73;14.67;;;5.60;99.90;;;;;;5016842;28;20607;-79
2022/12/20 10:15:50;;;;;;;18.13;15.37;;;5.70;99.90;;;;;;5016776;28;20207;-80
2022/12/20 10:18:36;;;;;;;18.40;14.30;;;5.80;99.90;;;;;;5016685;28;20195;-80
2022/12/20 10:21:08;;;;;;;18.77;14.93;;;5.70;99.90;;;;;;5016774;28;20543;-80
2022/12/20 10:23:42;;;;;;;19.97;14.47;;;5.70;99.90;;;;;;5016790;28;20203;-79
2022/12/20 10:26:10;;;;;;;18.00;14.73;;;5.70;99.90;;;;;;5016641;28;20278;-80
2022/12/20 10:28:37;;;;;;;18.63;15.07;;;5.60;99.90;;;;;;5016452;28;20313;-82
2022/12/20 10:31:07;;;;;;;18.57;14.30;;;5.60;99.90;;;;;;5016592;28;20671;-82
2022/12/20 10:33:35;;;;;;;18.70;14.40;;;5.60;99.90;;;;;;5016877;28;20532;-82
2022/12/20 10:36:22;;;;;;;18.83;13.63;;;5.50;99.90;;;;;;5016655;28;20218;-81
2022/12/20 10:38:51;;;;;;;19.93;13.53;;;5.60;99.90;;;;;;5016608;28;20226;-77
2022/12/20 10:41:20;;;;;;;17.87;14.27;;;5.60;99.90;;;;;;5016929;28;20198;-80
2022/12/20 10:43:51;;;;;;;19.53;14.60;;;5.70;99.90;;;;;;5016332;28;20729;-79
2022/12/20 10:46:17;;;;;;;18.00;14.20;;;5.70;99.90;;;;;;5016353;28;20234;-81
2022/12/20 10:48:47;;;;;;;20.67;14.43;;;5.90;99.90;;;;;;5016078;28;20203;-79
2022/12/20 10:51:16;;;;;;;18.23;13.57;;;5.90;99.90;;;;;;5016196;28;20198;-78
2022/12/20 10:53:57;;;;;;;17.07;13.17;;;6.20;99.90;;;;;;5016051;28;20195;-79
2022/12/20 10:56:27;;;;;;;18.40;13.17;;;6.30;99.90;;;;;;5016394;28;20204;-79
2022/12/20 10:58:56;;;;;;;17.57;13.43;;;6.40;99.90;;;;;;5016762;28;20554;-79
2022/12/20 11:01:26;;;;;;;17.53;13.90;;;6.50;99.90;;;;;;5019833;28;20228;-78
2022/12/20 11:03:57;;;;;;;15.97;13.67;;;6.30;99.90;;;;;;5024491;28;20231;-78
2022/12/20 11:06:28;;;;;;;15.57;13.23;;;6.20;99.90;;;;;;5016360;28;20233;-79
2022/12/20 11:09:12;;;;;;;16.30;12.93;;;6.00;99.90;;;;;;5016171;28;20199;-81
2022/12/20 11:11:39;;;;;;;20.33;14.23;;;6.00;99.90;;;;;;5015870;28;20206;-77
2022/12/20 11:14:15;;;;;;;18.37;14.40;;;6.10;99.90;;;;;;5015730;28;20611;-78
2022/12/20 11:16:44;;;;;;;17.67;13.93;;;6.00;99.90;;;;;;5015595;28;20204;-77
2022/12/20 11:19:44;;;;;;;18.20;13.57;;;6.10;99.90;;;;;;5015695;28;20621;-77
2022/12/20 11:22:22;;;;;;;19.90;13.70;;;6.30;99.90;;;;;;5015769;28;20203;-78
2022/12/20 11:24:56;;;;;;;16.90;12.90;;;6.40;99.90;;;;;;5015382;28;20277;-78
2022/12/20 11:27:32;;;;;;;19.90;14.57;;;6.30;99.90;;;;;;5015637;28;20203;-77
2022/12/20 11:30:08;;;;;;;18.77;13.70;;;6.30;99.90;;;;;;5015324;28;20198;-78
2022/12/20 11:32:47;;;;;;;19.40;14.37;;;6.40;99.90;;;;;;5015548;28;20209;-78
2022/12/20 11:35:20;;;;;;;21.53;13.77;;;6.50;99.90;;;;;;5015339;28;20198;-77
2022/12/20 11:37:54;;;;;;;18.83;13.37;;;6.90;99.90;;;;;;5015471;28;20199;-78
2022/12/20 11:40:30;;;;;;;15.37;12.80;;;7.00;99.90;;;;;;5009790;28;20226;-84
2022/12/20 11:43:15;;;;;;;17.40;13.40;;;7.20;99.90;;;;;;4995985;28;20207;-88
2022/12/20 11:45:51;;;;;;;15.67;12.40;;;7.30;99.90;;;;;;4994505;28;20289;-83
2022/12/20 11:48:39;;;;;;;16.07;13.33;;;7.30;99.90;;;;;;4996189;28;20203;-85
2022/12/20 11:51:14;;;;;;;15.60;13.23;;;7.30;99.90;;;;;;4995644;28;20258;-80
2022/12/20 11:53:45;;;;;;;14.43;12.60;;;7.40;99.90;;;;;;4996712;28;20253;-81
2022/12/20 11:56:16;;;;;;;16.03;13.10;;;7.40;99.90;;;;;;4996588;28;20199;-79
2022/12/20 11:58:50;;;;;;;16.40;13.67;;;7.40;99.90;;;;;;4995537;28;20207;-81
2022/12/20 12:01:20;;;;;;;16.57;13.60;;;7.40;99.90;;;;;;4995476;28;20203;-82
2022/12/20 12:03:59;;;;;;;18.07;13.57;;;7.50;99.90;;;;;;4995433;28;20246;-80
2022/12/20 12:06:31;;;;;;;18.37;13.17;;;7.50;99.90;;;;;;4994926;28;20445;-87
2022/12/20 12:09:12;;;;;;;18.73;13.40;;;7.30;99.90;;;;;;4995710;28;20753;-85
2022/12/20 12:11:42;;;;;;;15.73;13.10;;;7.20;99.90;;;;;;4995576;28;20207;-84
2022/12/20 12:14:17;;;;;;;18.27;13.83;;;7.20;99.90;;;;;;4997102;28;20205;-86
2022/12/20 12:16:50;;;;;;;17.47;13.00;;;7.10;99.90;;;;;;4994980;28;20587;-86
2022/12/20 12:19:17;;;;;;;18.63;14.30;;;6.90;99.90;;;;;;4993850;28;20255;-81
2022/12/20 12:21:51;;;;;;;15.70;13.10;;;6.80;99.90;;;;;;4994969;28;20601;-82
2022/12/20 12:24:23;;;;;;;16.90;13.13;;;6.70;99.90;;;;;;4995054;28;20210;-83
2022/12/20 12:26:50;;;;;;;14.47;12.30;;;6.70;99.90;;;;;;4995016;28;20237;-78
2022/12/20 12:29:18;;;;;;;19.57;13.57;;;6.90;99.90;;;;;;4994882;28;20250;-78
2022/12/20 12:31:49;;;;;;;15.40;13.50;;;7.00;99.90;;;;;;4994569;28;20294;-77
2022/12/20 12:34:30;;;;;;;14.93;12.50;;;7.00;99.90;;;;;;4994514;28;20204;-77
2022/12/20 12:37:26;;;;;;;17.50;13.77;;;6.80;99.90;;;;;;4994681;28;20717;-76
2022/12/20 12:40:10;;;;;;;16.70;12.77;;;6.80;99.90;;;;;;4969286;28;20228;-79
2022/12/20 12:43:14;;;;;;;18.70;13.90;;;6.70;99.90;;;;;;4995609;28;20678;-78
2022/12/20 12:45:46;;;;;;;17.80;14.13;;;6.50;99.90;;;;;;4994320;28;20232;-79
2022/12/20 12:48:17;;;;;;;17.57;14.07;;;6.50;99.90;;;;;;4994361;28;20229;-76
2022/12/20 12:50:46;;;;;;;16.87;13.43;;;6.50;99.90;;;;;;4994194;28;20707;-79
2022/12/20 12:53:17;;;;;;;18.13;13.53;;;6.40;99.90;;;;;;4994489;28;20196;-82
2022/12/20 12:55:46;;;;;;;16.47;13.70;;;6.40;99.90;;;;;;4994439;28;20254;-79